createdAt,value
2018-08-09T00:00:17.068Z,0
2018-08-09T00:00:57.910Z,0
2018-08-09T00:01:38.417Z,0
2018-08-09T00:02:18.872Z,0
2018-08-09T00:02:59.409Z,0
2018-08-09T00:03:40.192Z,0
2018-08-09T00:04:20.789Z,0
2018-08-09T00:05:01.542Z,0
2018-08-09T00:05:42.389Z,0
2018-08-09T00:06:23.190Z,0
2018-08-09T00:07:03.807Z,0
2018-08-09T00:07:44.358Z,0
2018-08-09T00:08:24.767Z,0
2018-08-09T00:09:05.224Z,0
2018-08-09T00:09:45.714Z,0
2018-08-09T00:10:26.254Z,0
2018-08-09T00:11:06.700Z,0
2018-08-09T00:11:47.217Z,0
2018-08-09T00:12:27.730Z,0
2018-08-09T00:13:08.212Z,0
2018-08-09T00:13:48.721Z,0
2018-08-09T00:14:29.157Z,0
2018-08-09T00:15:09.658Z,0
2018-08-09T00:15:50.199Z,0
2018-08-09T00:16:30.722Z,0
2018-08-09T00:17:11.213Z,0
2018-08-09T00:17:51.715Z,0
2018-08-09T00:18:32.212Z,0
2018-08-09T00:19:12.744Z,0
2018-08-09T00:19:53.379Z,0
2018-08-09T00:20:33.960Z,0
2018-08-09T00:21:14.419Z,0
2018-08-09T00:21:55.184Z,0
2018-08-09T00:22:35.684Z,0
2018-08-09T00:23:16.241Z,0
2018-08-09T00:23:56.897Z,0
2018-08-09T00:24:37.224Z,0
2018-08-09T00:25:17.822Z,0
2018-08-09T00:25:58.354Z,0
2018-08-09T00:26:38.844Z,0
2018-08-09T00:27:19.339Z,0
2018-08-09T00:28:00.127Z,0
2018-08-09T00:28:40.647Z,0
2018-08-09T00:29:21.144Z,0
2018-08-09T00:30:01.590Z,0
2018-08-09T00:30:42.131Z,0
2018-08-09T00:31:22.645Z,0
2018-08-09T00:32:03.102Z,0
2018-08-09T00:32:43.584Z,0
2018-08-09T00:33:24.064Z,0
2018-08-09T00:34:04.570Z,0
2018-08-09T00:34:45.125Z,0
2018-08-09T00:35:26.560Z,0
2018-08-09T00:36:07.023Z,0
2018-08-09T00:36:47.487Z,0
2018-08-09T00:37:28.058Z,0
2018-08-09T00:38:08.612Z,0
2018-08-09T00:38:49.087Z,0
2018-08-09T00:39:29.653Z,0
2018-08-09T00:40:10.127Z,0
2018-08-09T00:40:50.600Z,0
2018-08-09T00:41:31.142Z,0
2018-08-09T00:42:11.735Z,0
2018-08-09T00:42:52.222Z,0
2018-08-09T00:43:32.736Z,0
2018-08-09T00:44:13.145Z,0
2018-08-09T00:44:53.861Z,0
2018-08-09T00:45:34.341Z,0
2018-08-09T00:46:14.944Z,0
2018-08-09T00:46:55.421Z,0
2018-08-09T00:47:35.975Z,0
2018-08-09T00:48:16.693Z,0
2018-08-09T00:48:57.284Z,0
2018-08-09T00:49:37.861Z,0
2018-08-09T00:50:18.366Z,0
2018-08-09T00:50:58.926Z,0
2018-08-09T00:51:39.396Z,0
2018-08-09T00:52:19.887Z,0
2018-08-09T00:53:00.388Z,0
2018-08-09T00:53:40.915Z,0
2018-08-09T00:54:21.494Z,0
2018-08-09T00:55:02.043Z,0
2018-08-09T00:55:43.296Z,0
2018-08-09T00:56:23.770Z,0
2018-08-09T00:57:04.274Z,0
2018-08-09T00:57:44.825Z,0
2018-08-09T00:58:25.305Z,0
2018-08-09T00:59:05.841Z,0
2018-08-09T00:59:46.345Z,0
2018-08-09T01:00:26.860Z,0
2018-08-09T01:01:07.419Z,0
2018-08-09T01:01:47.929Z,0
2018-08-09T01:02:28.479Z,0
2018-08-09T01:03:08.966Z,0
2018-08-09T01:03:49.595Z,0
2018-08-09T01:04:30.182Z,0
2018-08-09T01:05:10.662Z,0
2018-08-09T01:05:51.247Z,0
2018-08-09T01:06:31.705Z,0
2018-08-09T01:07:12.256Z,0
2018-08-09T01:07:52.795Z,0
2018-08-09T01:09:51.289Z,0
2018-08-09T01:10:31.887Z,0
2018-08-09T01:11:12.541Z,0
2018-08-09T01:11:52.966Z,0
2018-08-09T01:12:34.137Z,0
2018-08-09T01:13:14.576Z,0
2018-08-09T01:13:55.217Z,0
2018-08-09T01:14:35.740Z,0
2018-08-09T01:15:16.367Z,0
2018-08-09T01:15:56.950Z,0
2018-08-09T01:16:37.329Z,0
2018-08-09T01:17:18.257Z,0
2018-08-09T01:17:59.012Z,0
2018-08-09T01:18:39.698Z,0
2018-08-09T01:19:20.182Z,0
2018-08-09T01:20:00.912Z,0
2018-08-09T01:20:41.451Z,0
2018-08-09T01:21:21.867Z,0
2018-08-09T01:22:02.430Z,0
2018-08-09T01:22:43.115Z,0
2018-08-09T01:23:23.545Z,0
2018-08-09T01:24:04.065Z,0
2018-08-09T01:24:44.709Z,0
2018-08-09T01:25:25.174Z,0
2018-08-09T01:26:05.679Z,0
2018-08-09T01:26:46.165Z,0
2018-08-09T01:27:26.715Z,0
2018-08-09T01:28:07.174Z,0
2018-08-09T01:28:47.810Z,0
2018-08-09T01:29:28.391Z,0
2018-08-09T01:30:08.847Z,0
2018-08-09T01:30:49.611Z,0
2018-08-09T01:31:30.151Z,0
2018-08-09T01:32:10.642Z,0
2018-08-09T01:32:51.261Z,0
2018-08-09T01:33:31.706Z,0
2018-08-09T01:34:12.237Z,0
2018-08-09T01:34:52.807Z,0
2018-08-09T01:35:33.345Z,0
2018-08-09T01:36:13.830Z,0
2018-08-09T01:36:54.334Z,0
2018-08-09T01:37:34.777Z,0
2018-08-09T01:38:15.215Z,0
2018-08-09T01:38:55.841Z,0
2018-08-09T01:39:36.510Z,0
2018-08-09T01:40:17.022Z,0
2018-08-09T01:40:57.555Z,0
2018-08-09T01:41:38.084Z,0
2018-08-09T01:42:18.590Z,0
2018-08-09T01:42:59.207Z,0
2018-08-09T01:43:39.684Z,0
2018-08-09T01:44:20.180Z,0
2018-08-09T01:45:00.723Z,0
2018-08-09T01:45:41.215Z,0
2018-08-09T01:46:21.692Z,0
2018-08-09T01:47:02.179Z,0
2018-08-09T01:47:42.697Z,0
2018-08-09T01:48:23.151Z,0
2018-08-09T01:49:03.574Z,0
2018-08-09T01:49:44.101Z,0
2018-08-09T01:50:24.623Z,0
2018-08-09T01:51:05.145Z,0
2018-08-09T01:51:45.662Z,0
2018-08-09T01:52:26.162Z,0
2018-08-09T01:53:06.649Z,0
2018-08-09T01:53:47.174Z,0
2018-08-09T01:54:27.644Z,0
2018-08-09T01:55:08.140Z,0
2018-08-09T01:55:48.585Z,0
2018-08-09T01:56:29.086Z,0
2018-08-09T01:57:09.648Z,0
2018-08-09T01:57:50.137Z,0
2018-08-09T01:58:30.748Z,0
2018-08-09T01:59:11.181Z,0
2018-08-09T01:59:51.859Z,0
2018-08-09T02:00:32.319Z,0
2018-08-09T02:01:12.793Z,0
2018-08-09T02:01:53.376Z,0
2018-08-09T02:02:33.956Z,0
2018-08-09T02:03:14.442Z,0
2018-08-09T02:03:54.940Z,0
2018-08-09T02:04:35.536Z,0
2018-08-09T02:05:15.921Z,0
2018-08-09T02:05:56.491Z,0
2018-08-09T02:06:36.965Z,0
2018-08-09T02:07:17.475Z,0
2018-08-09T02:07:58.107Z,0
2018-08-09T02:08:38.695Z,0
2018-08-09T02:09:19.159Z,0
2018-08-09T02:09:59.678Z,0
2018-08-09T02:10:40.155Z,0
2018-08-09T02:11:20.688Z,0
2018-08-09T02:12:01.238Z,0
2018-08-09T02:12:41.700Z,0
2018-08-09T02:13:22.281Z,0
2018-08-09T02:14:02.784Z,0
2018-08-09T02:14:43.274Z,0
2018-08-09T02:15:23.801Z,0
2018-08-09T02:16:04.341Z,0
2018-08-09T02:16:44.849Z,0
2018-08-09T02:17:25.328Z,0
2018-08-09T02:18:05.763Z,0
2018-08-09T02:18:46.238Z,0
2018-08-09T02:19:26.746Z,0
2018-08-09T02:20:07.238Z,0
2018-08-09T02:20:47.728Z,0
2018-08-09T02:21:28.243Z,0
2018-08-09T02:22:08.743Z,0
2018-08-09T02:22:49.312Z,0
2018-08-09T02:23:29.794Z,0
2018-08-09T02:24:10.289Z,0
2018-08-09T02:24:50.723Z,0
2018-08-09T02:25:31.184Z,0
2018-08-09T02:26:11.737Z,0
2018-08-09T02:26:52.219Z,0
2018-08-09T02:27:32.725Z,0
2018-08-09T02:28:13.232Z,0
2018-08-09T02:28:53.765Z,0
2018-08-09T02:29:34.252Z,0
2018-08-09T02:30:14.817Z,0
2018-08-09T02:30:55.321Z,0
2018-08-09T02:31:35.916Z,0
2018-08-09T02:32:16.336Z,0
2018-08-09T02:32:56.864Z,0
2018-08-09T02:33:37.381Z,0
2018-08-09T02:34:17.858Z,0
2018-08-09T02:34:58.341Z,0
2018-08-09T02:35:38.821Z,0
2018-08-09T02:36:19.332Z,0
2018-08-09T02:36:59.937Z,0
2018-08-09T02:37:40.323Z,0
2018-08-09T02:38:20.924Z,0
2018-08-09T02:39:01.520Z,0
2018-08-09T02:39:42.054Z,0
2018-08-09T02:40:22.562Z,0
2018-08-09T02:41:03.070Z,0
2018-08-09T02:41:43.643Z,0
2018-08-09T02:42:24.283Z,0
2018-08-09T02:43:04.812Z,0
2018-08-09T02:43:45.225Z,0
2018-08-09T02:44:25.765Z,0
2018-08-09T02:45:06.209Z,0
2018-08-09T02:45:46.733Z,0
2018-08-09T02:46:27.234Z,0
2018-08-09T02:47:07.711Z,0
2018-08-09T02:47:48.905Z,0
2018-08-09T02:48:28.837Z,0
2018-08-09T02:49:09.476Z,0
2018-08-09T02:49:50.001Z,0
2018-08-09T02:50:30.493Z,0
2018-08-09T02:51:11.023Z,0
2018-08-09T02:51:51.555Z,0
2018-08-09T02:52:32.021Z,0
2018-08-09T02:53:12.488Z,0
2018-08-09T02:53:53.086Z,0
2018-08-09T02:54:33.565Z,0
2018-08-09T02:55:14.025Z,0
2018-08-09T02:55:54.551Z,0
2018-08-09T02:56:35.023Z,0
2018-08-09T02:57:15.559Z,0
2018-08-09T02:57:56.032Z,0
2018-08-09T02:58:36.597Z,0
2018-08-09T02:59:17.257Z,0
2018-08-09T02:59:57.687Z,0
2018-08-09T03:00:38.442Z,0
2018-08-09T03:01:18.922Z,0
2018-08-09T03:01:59.421Z,0
2018-08-09T03:02:39.910Z,0
2018-08-09T03:03:20.570Z,0
2018-08-09T03:04:01.021Z,0
2018-08-09T03:04:41.539Z,0
2018-08-09T03:05:22.074Z,0
2018-08-09T03:06:02.554Z,0
2018-08-09T03:06:43.081Z,0
2018-08-09T03:07:23.566Z,0
2018-08-09T03:08:04.115Z,0
2018-08-09T03:08:44.580Z,0
2018-08-09T03:09:25.088Z,0
2018-08-09T03:10:05.606Z,0
2018-08-09T03:10:46.377Z,0
2018-08-09T03:11:26.844Z,0
2018-08-09T03:12:07.327Z,0
2018-08-09T03:12:48.219Z,0
2018-08-09T03:13:28.682Z,0
2018-08-09T03:14:09.233Z,0
2018-08-09T03:14:49.719Z,0
2018-08-09T03:15:30.231Z,0
2018-08-09T03:16:10.679Z,0
2018-08-09T03:16:51.541Z,0
2018-08-09T03:17:32.032Z,0
2018-08-09T03:18:12.533Z,0
2018-08-09T03:18:53.049Z,0
2018-08-09T03:19:33.543Z,0
2018-08-09T03:20:13.989Z,0
2018-08-09T03:20:54.576Z,0
2018-08-09T03:21:35.089Z,0
2018-08-09T03:22:16.225Z,0
2018-08-09T03:22:56.994Z,0
2018-08-09T03:23:38.140Z,0
2018-08-09T03:24:18.831Z,0
2018-08-09T03:24:59.344Z,0
2018-08-09T03:25:39.795Z,0
2018-08-09T03:26:20.339Z,0
2018-08-09T03:27:01.060Z,0
2018-08-09T03:27:41.529Z,0
2018-08-09T03:28:22.028Z,0
2018-08-09T03:29:02.534Z,0
2018-08-09T03:29:43.185Z,0
2018-08-09T03:30:23.650Z,0
2018-08-09T03:31:04.230Z,0
2018-08-09T03:31:44.683Z,0
2018-08-09T03:32:25.231Z,0
2018-08-09T03:33:05.731Z,0
2018-08-09T03:33:46.255Z,0
2018-08-09T03:34:26.740Z,0
2018-08-09T03:35:07.257Z,0
2018-08-09T03:35:47.774Z,0
2018-08-09T03:36:28.284Z,0
2018-08-09T03:37:08.786Z,0
2018-08-09T03:37:49.283Z,0
2018-08-09T03:38:29.789Z,0
2018-08-09T03:39:10.289Z,0
2018-08-09T03:39:50.843Z,0
2018-08-09T03:40:31.287Z,0
2018-08-09T03:41:11.737Z,0
2018-08-09T03:41:52.244Z,0
2018-08-09T03:42:32.813Z,0
2018-08-09T03:43:13.245Z,0
2018-08-09T03:43:53.870Z,0
2018-08-09T03:44:34.417Z,0
2018-08-09T03:45:15.110Z,0
2018-08-09T03:45:55.654Z,0
2018-08-09T03:46:37.119Z,0
2018-08-09T03:47:17.616Z,4
2018-08-09T03:47:58.159Z,4
2018-08-09T03:48:38.649Z,4
2018-08-09T03:49:19.241Z,0
2018-08-09T03:49:59.775Z,0
2018-08-09T03:50:40.240Z,0
2018-08-09T03:51:20.738Z,0
2018-08-09T03:52:01.272Z,4
2018-08-09T03:52:43.759Z,4
2018-08-09T03:53:24.287Z,4
2018-08-09T03:54:05.416Z,0
2018-08-09T03:54:46.029Z,0
2018-08-09T03:55:26.528Z,4
2018-08-09T03:56:07.069Z,4
2018-08-09T03:56:50.187Z,4
2018-08-09T03:57:30.779Z,0
2018-08-09T03:58:11.338Z,4
2018-08-09T03:58:51.801Z,4
2018-08-09T03:59:32.342Z,4
2018-08-09T04:00:12.854Z,4
2018-08-09T04:00:53.335Z,8
2018-08-09T04:01:33.815Z,4
2018-08-09T04:02:14.306Z,4
2018-08-09T04:02:54.737Z,8
2018-08-09T04:03:35.437Z,8
2018-08-09T04:04:16.039Z,4
2018-08-09T04:04:56.579Z,8
2018-08-09T04:05:38.053Z,8
2018-08-09T04:06:18.499Z,8
2018-08-09T04:06:59.227Z,8
2018-08-09T04:07:39.817Z,8
2018-08-09T04:08:20.270Z,12
2018-08-09T04:09:00.739Z,12
2018-08-09T04:09:41.369Z,8
2018-08-09T04:10:21.972Z,12
2018-08-09T04:11:02.486Z,12
2018-08-09T04:11:43.075Z,16
2018-08-09T04:12:23.485Z,12
2018-08-09T04:13:04.044Z,12
2018-08-09T04:13:44.659Z,16
2018-08-09T04:14:25.078Z,12
2018-08-09T04:15:05.572Z,16
2018-08-09T04:15:46.123Z,16
2018-08-09T04:16:26.593Z,16
2018-08-09T04:17:07.101Z,16
2018-08-09T04:17:47.652Z,16
2018-08-09T04:18:28.079Z,20
2018-08-09T04:19:08.781Z,16
2018-08-09T04:19:49.268Z,20
2018-08-09T04:20:29.734Z,20
2018-08-09T04:21:10.231Z,20
2018-08-09T04:21:50.761Z,20
2018-08-09T04:22:31.321Z,20
2018-08-09T04:23:11.725Z,24
2018-08-09T04:23:52.236Z,20
2018-08-09T04:24:32.718Z,24
2018-08-09T04:25:13.211Z,24
2018-08-09T04:25:53.723Z,28
2018-08-09T04:26:34.217Z,28
2018-08-09T04:27:14.722Z,28
2018-08-09T04:27:55.172Z,28
2018-08-09T04:28:35.698Z,32
2018-08-09T04:29:16.202Z,36
2018-08-09T04:29:56.676Z,36
2018-08-09T04:30:37.480Z,36
2018-08-09T04:31:18.000Z,40
2018-08-09T04:31:58.530Z,40
2018-08-09T04:32:39.047Z,44
2018-08-09T04:33:19.495Z,48
2018-08-09T04:34:00.037Z,48
2018-08-09T04:34:40.525Z,48
2018-08-09T04:35:20.975Z,48
2018-08-09T04:36:01.514Z,52
2018-08-09T04:36:41.965Z,52
2018-08-09T04:37:22.499Z,56
2018-08-09T04:38:03.058Z,56
2018-08-09T04:38:43.517Z,56
2018-08-09T04:39:24.058Z,60
2018-08-09T04:40:04.532Z,64
2018-08-09T04:40:45.044Z,64
2018-08-09T04:41:25.542Z,68
2018-08-09T04:42:06.053Z,68
2018-08-09T04:42:46.621Z,72
2018-08-09T04:43:27.192Z,68
2018-08-09T04:44:07.674Z,72
2018-08-09T04:44:48.260Z,72
2018-08-09T04:45:28.913Z,72
2018-08-09T04:46:09.360Z,76
2018-08-09T04:46:49.861Z,80
2018-08-09T04:47:30.431Z,84
2018-08-09T04:48:10.806Z,84
2018-08-09T04:48:51.306Z,84
2018-08-09T04:49:31.913Z,84
2018-08-09T04:50:12.366Z,92
2018-08-09T04:50:52.845Z,96
2018-08-09T04:51:33.371Z,100
2018-08-09T04:52:13.861Z,104
2018-08-09T04:52:54.845Z,108
2018-08-09T04:53:35.208Z,108
2018-08-09T04:54:15.774Z,108
2018-08-09T04:54:56.167Z,112
2018-08-09T04:55:36.769Z,116
2018-08-09T04:56:17.621Z,124
2018-08-09T04:56:58.074Z,124
2018-08-09T04:57:38.612Z,124
2018-08-09T04:58:19.117Z,128
2018-08-09T04:58:59.875Z,128
2018-08-09T04:59:40.405Z,132
2018-08-09T05:00:20.933Z,136
2018-08-09T05:01:01.585Z,136
2018-08-09T05:01:42.135Z,140
2018-08-09T05:02:23.401Z,144
2018-08-09T05:03:04.159Z,144
2018-08-09T05:03:44.703Z,144
2018-08-09T05:04:25.470Z,144
2018-08-09T05:05:06.323Z,148
2018-08-09T05:05:46.781Z,148
2018-08-09T05:06:27.452Z,152
2018-08-09T05:07:07.824Z,156
2018-08-09T05:07:49.140Z,156
2018-08-09T05:08:29.851Z,160
2018-08-09T05:09:10.352Z,160
2018-08-09T05:09:50.807Z,164
2018-08-09T05:10:31.355Z,168
2018-08-09T05:11:11.899Z,172
2018-08-09T05:11:52.333Z,176
2018-08-09T05:12:32.926Z,180
2018-08-09T05:13:13.534Z,184
2018-08-09T05:13:54.334Z,188
2018-08-09T05:14:34.959Z,196
2018-08-09T05:15:15.499Z,204
2018-08-09T05:15:55.998Z,216
2018-08-09T05:16:36.463Z,220
2018-08-09T05:17:17.068Z,228
2018-08-09T05:17:57.610Z,236
2018-08-09T05:18:38.422Z,240
2018-08-09T05:19:19.007Z,244
2018-08-09T05:20:01.254Z,252
2018-08-09T05:20:41.772Z,252
2018-08-09T05:21:22.430Z,248
2018-08-09T05:22:02.897Z,244
2018-08-09T05:22:43.445Z,244
2018-08-09T05:23:23.899Z,240
2018-08-09T05:24:04.449Z,244
2018-08-09T05:24:44.920Z,248
2018-08-09T05:25:25.617Z,252
2018-08-09T05:26:06.137Z,256
2018-08-09T05:26:46.641Z,264
2018-08-09T05:27:27.156Z,276
2018-08-09T05:28:07.633Z,280
2018-08-09T05:28:48.163Z,284
2018-08-09T05:29:28.743Z,284
2018-08-09T05:30:09.366Z,280
2018-08-09T05:30:49.839Z,276
2018-08-09T05:31:40.050Z,276
2018-08-09T05:32:20.528Z,276
2018-08-09T05:33:01.049Z,272
2018-08-09T05:33:41.572Z,280
2018-08-09T05:34:22.257Z,284
2018-08-09T05:35:02.843Z,284
2018-08-09T05:35:44.000Z,276
2018-08-09T05:36:23.758Z,272
2018-08-09T05:37:04.249Z,268
2018-08-09T05:37:44.833Z,264
2018-08-09T05:38:25.408Z,264
2018-08-09T05:39:06.010Z,260
2018-08-09T05:39:46.534Z,260
2018-08-09T05:40:27.000Z,272
2018-08-09T05:41:07.497Z,284
2018-08-09T05:41:48.004Z,288
2018-08-09T05:42:28.523Z,304
2018-08-09T05:43:09.029Z,288
2018-08-09T05:45:22.336Z,284
2018-08-09T05:46:02.903Z,300
2018-08-09T05:46:43.453Z,316
2018-08-09T05:47:24.042Z,320
2018-08-09T05:48:04.567Z,356
2018-08-09T05:48:45.061Z,388
2018-08-09T05:49:25.618Z,376
2018-08-09T05:50:06.602Z,380
2018-08-09T05:50:46.791Z,344
2018-08-09T05:51:27.863Z,352
2018-08-09T05:52:08.312Z,700
2018-08-09T05:52:48.864Z,364
2018-08-09T05:53:29.491Z,400
2018-08-09T05:54:10.161Z,368
2018-08-09T05:54:50.650Z,368
2018-08-09T05:55:31.263Z,372
2018-08-09T05:56:11.897Z,392
2018-08-09T05:56:52.865Z,408
2018-08-09T05:57:34.067Z,464
2018-08-09T05:58:14.392Z,428
2018-08-09T05:58:55.147Z,456
2018-08-09T05:59:35.986Z,512
2018-08-09T06:00:16.542Z,516
2018-08-09T06:02:30.132Z,604
2018-08-09T06:03:10.525Z,660
2018-08-09T06:03:51.571Z,796
2018-08-09T06:04:32.233Z,820
2018-08-09T06:05:12.781Z,828
2018-08-09T06:05:53.288Z,844
2018-08-09T06:06:37.929Z,904
2018-08-09T06:08:36.040Z,1192
2018-08-09T06:09:16.453Z,1252
2018-08-09T06:09:57.092Z,1304
2018-08-09T06:10:37.878Z,1344
2018-08-09T06:11:19.233Z,1364
2018-08-09T06:12:01.165Z,1372
2018-08-09T06:12:42.162Z,1276
2018-08-09T06:13:26.532Z,964
2018-08-09T06:14:06.864Z,592
2018-08-09T06:14:47.528Z,552
2018-08-09T06:15:28.134Z,676
2018-08-09T06:16:08.598Z,568
2018-08-09T06:16:49.080Z,552
2018-08-09T06:17:29.602Z,528
2018-08-09T06:18:10.110Z,508
2018-08-09T06:18:50.713Z,500
2018-08-09T06:19:31.124Z,480
2018-08-09T06:20:11.686Z,452
2018-08-09T06:20:52.315Z,432
2018-08-09T06:21:32.813Z,412
2018-08-09T06:22:13.497Z,424
2018-08-09T06:22:54.004Z,428
2018-08-09T06:23:34.663Z,460
2018-08-09T06:24:15.306Z,704
2018-08-09T06:24:55.875Z,692
2018-08-09T06:25:36.396Z,696
2018-08-09T06:26:16.933Z,696
2018-08-09T06:26:57.376Z,668
2018-08-09T06:27:37.873Z,692
2018-08-09T06:28:18.699Z,692
2018-08-09T06:28:58.919Z,692
2018-08-09T06:29:39.448Z,668
2018-08-09T06:30:20.075Z,548
2018-08-09T06:31:00.756Z,544
2018-08-09T06:31:41.223Z,512
2018-08-09T06:32:21.712Z,492
2018-08-09T06:33:02.167Z,484
2018-08-09T06:33:42.778Z,480
2018-08-09T06:34:23.256Z,476
2018-08-09T06:35:04.481Z,484
2018-08-09T06:35:45.077Z,484
2018-08-09T06:36:26.045Z,484
2018-08-09T06:38:24.374Z,536
2018-08-09T06:39:04.962Z,644
2018-08-09T06:39:45.406Z,640
2018-08-09T06:40:25.947Z,608
2018-08-09T06:41:06.410Z,580
2018-08-09T06:41:46.905Z,564
2018-08-09T06:42:27.371Z,668
2018-08-09T06:43:07.908Z,664
2018-08-09T06:43:48.565Z,708
2018-08-09T06:44:29.072Z,740
2018-08-09T06:45:09.527Z,780
2018-08-09T06:45:50.077Z,828
2018-08-09T06:46:30.557Z,888
2018-08-09T06:47:11.050Z,960
2018-08-09T06:47:51.607Z,1052
2018-08-09T06:48:32.212Z,1164
2018-08-09T06:49:12.897Z,1240
2018-08-09T06:49:53.312Z,1332
2018-08-09T06:50:33.920Z,1424
2018-08-09T06:51:14.415Z,1520
2018-08-09T06:51:54.919Z,1464
2018-08-09T06:52:35.451Z,1668
2018-08-09T06:53:15.970Z,1588
2018-08-09T06:53:56.469Z,1492
2018-08-09T06:54:36.975Z,808
2018-08-09T06:55:18.147Z,820
2018-08-09T06:55:58.670Z,764
2018-08-09T06:56:39.091Z,764
2018-08-09T06:57:19.708Z,716
2018-08-09T06:58:00.181Z,704
2018-08-09T06:58:40.725Z,688
2018-08-09T06:59:21.197Z,656
2018-08-09T07:00:01.848Z,648
2018-08-09T07:00:42.303Z,656
2018-08-09T07:01:22.852Z,664
2018-08-09T07:02:03.635Z,688
2018-08-09T07:02:44.319Z,712
2018-08-09T07:03:24.835Z,716
2018-08-09T07:04:05.324Z,812
2018-08-09T07:04:45.851Z,1044
2018-08-09T07:05:26.326Z,1128
2018-08-09T07:06:06.801Z,1248
2018-08-09T07:06:47.338Z,1624
2018-08-09T07:07:28.005Z,1812
2018-08-09T07:08:08.532Z,1828
2018-08-09T07:08:48.971Z,1804
2018-08-09T07:09:29.478Z,1804
2018-08-09T07:10:09.987Z,1748
2018-08-09T07:10:51.639Z,1764
2018-08-09T07:11:32.129Z,1740
2018-08-09T07:12:12.656Z,1732
2018-08-09T07:12:53.269Z,1724
2018-08-09T07:13:33.608Z,1708
2018-08-09T07:14:14.117Z,1680
2018-08-09T07:14:54.687Z,1652
2018-08-09T07:15:35.196Z,1652
2018-08-09T07:16:15.775Z,1652
2018-08-09T07:16:56.171Z,1644
2018-08-09T07:17:36.749Z,1628
2018-08-09T07:18:17.221Z,1636
2018-08-09T07:18:57.723Z,1648
2018-08-09T07:19:38.295Z,1656
2018-08-09T07:20:19.495Z,1664
2018-08-09T07:21:00.123Z,1652
2018-08-09T07:21:40.634Z,1636
2018-08-09T07:22:21.142Z,1620
2018-08-09T07:23:01.581Z,1612
2018-08-09T07:23:42.154Z,1572
2018-08-09T07:24:22.597Z,1556
2018-08-09T07:25:03.118Z,1540
2018-08-09T07:25:43.603Z,1528
2018-08-09T07:26:24.253Z,1528
2018-08-09T07:27:04.843Z,1512
2018-08-09T07:27:45.396Z,1524
2018-08-09T07:28:26.045Z,1524
2018-08-09T07:29:06.506Z,1536
2018-08-09T07:29:46.999Z,1552
2018-08-09T07:30:27.523Z,1572
2018-08-09T07:31:08.012Z,1556
2018-08-09T07:31:48.543Z,1568
2018-08-09T07:32:29.000Z,1552
2018-08-09T07:33:09.600Z,1552
2018-08-09T07:33:50.184Z,1544
2018-08-09T07:34:30.635Z,1536
2018-08-09T07:35:11.247Z,1528
2018-08-09T07:35:51.751Z,1524
2018-08-09T07:36:32.240Z,1524
2018-08-09T07:37:12.649Z,1520
2018-08-09T07:37:53.156Z,1500
2018-08-09T07:38:33.676Z,1484
2018-08-09T07:39:14.170Z,1464
2018-08-09T07:39:54.691Z,1464
2018-08-09T07:40:35.150Z,1464
2018-08-09T07:41:16.321Z,1460
2018-08-09T07:41:56.858Z,1456
2018-08-09T07:42:37.365Z,1448
2018-08-09T07:43:17.841Z,1444
2018-08-09T07:43:58.403Z,1428
2018-08-09T07:44:39.018Z,1452
2018-08-09T07:45:19.515Z,1452
2018-08-09T07:46:00.109Z,1444
2018-08-09T07:46:40.596Z,1424
2018-08-09T07:47:21.066Z,1436
2018-08-09T07:48:02.343Z,1436
2018-08-09T07:48:42.841Z,1420
2018-08-09T07:49:23.295Z,1412
2018-08-09T07:50:03.795Z,1392
2018-08-09T07:50:44.385Z,1380
2018-08-09T07:51:24.917Z,1376
2018-08-09T07:52:05.447Z,1392
2018-08-09T07:52:46.136Z,1372
2018-08-09T07:53:26.742Z,1364
2018-08-09T07:54:07.907Z,1356
2018-08-09T07:54:48.364Z,1348
2018-08-09T07:55:28.983Z,1344
2018-08-09T07:56:09.543Z,1316
2018-08-09T07:56:50.314Z,1304
2018-08-09T07:57:30.650Z,1292
2018-08-09T07:58:11.200Z,1284
2018-08-09T07:58:51.877Z,1280
2018-08-09T07:59:32.417Z,1284
2018-08-09T08:00:12.854Z,1272
2018-08-09T08:00:53.482Z,1268
2018-08-09T08:01:34.067Z,1264
2018-08-09T08:02:14.523Z,1252
2018-08-09T08:02:55.060Z,1252
2018-08-09T08:03:35.549Z,1260
2018-08-09T08:04:16.050Z,1248
2018-08-09T08:04:56.523Z,1240
2018-08-09T08:05:37.118Z,1224
2018-08-09T08:06:17.597Z,1212
2018-08-09T08:06:58.259Z,1192
2018-08-09T08:07:39.443Z,1168
2018-08-09T08:08:20.166Z,1156
2018-08-09T08:09:00.833Z,1144
2018-08-09T08:09:41.371Z,1128
2018-08-09T08:10:21.929Z,1128
2018-08-09T08:11:02.386Z,1032
2018-08-09T08:11:43.464Z,1084
2018-08-09T08:12:24.743Z,1028
2018-08-09T08:13:05.155Z,1012
2018-08-09T08:13:45.636Z,952
2018-08-09T08:14:26.189Z,924
2018-08-09T08:15:06.708Z,892
2018-08-09T08:15:47.192Z,856
2018-08-09T08:16:27.910Z,836
2018-08-09T08:17:08.364Z,816
2018-08-09T08:17:48.912Z,800
2018-08-09T08:18:29.533Z,788
2018-08-09T08:19:10.058Z,780
2018-08-09T08:19:50.674Z,772
2018-08-09T08:20:31.189Z,764
2018-08-09T08:21:11.692Z,760
2018-08-09T08:21:52.364Z,752
2018-08-09T08:22:32.803Z,748
2018-08-09T08:23:13.323Z,744
2018-08-09T08:23:53.969Z,736
2018-08-09T08:24:35.236Z,736
2018-08-09T08:25:15.810Z,724
2018-08-09T08:25:56.469Z,720
2018-08-09T08:26:36.996Z,716
2018-08-09T08:27:17.511Z,716
2018-08-09T08:27:57.949Z,708
2018-08-09T08:28:38.436Z,704
2018-08-09T08:29:19.044Z,700
2018-08-09T08:29:59.529Z,692
2018-08-09T08:30:39.981Z,692
2018-08-09T08:31:20.467Z,692
2018-08-09T08:32:00.998Z,684
2018-08-09T08:32:41.559Z,680
2018-08-09T08:33:22.042Z,680
2018-08-09T08:34:02.594Z,676
2018-08-09T08:34:43.165Z,672
2018-08-09T08:35:23.589Z,664
2018-08-09T08:36:04.377Z,660
2018-08-09T08:36:44.980Z,656
2018-08-09T08:37:26.540Z,656
2018-08-09T08:38:07.117Z,652
2018-08-09T08:38:47.629Z,644
2018-08-09T08:39:28.170Z,636
2018-08-09T08:40:08.681Z,636
2018-08-09T08:40:50.128Z,636
2018-08-09T08:41:30.767Z,636
2018-08-09T08:42:11.265Z,632
2018-08-09T08:42:51.757Z,632
2018-08-09T08:43:32.321Z,628
2018-08-09T08:44:12.943Z,624
2018-08-09T08:44:53.471Z,624
2018-08-09T08:45:33.961Z,616
2018-08-09T08:46:14.493Z,612
2018-08-09T08:46:54.958Z,612
2018-08-09T08:47:35.589Z,612
2018-08-09T08:48:16.033Z,608
2018-08-09T08:48:56.605Z,604
2018-08-09T08:49:37.246Z,604
2018-08-09T08:50:17.794Z,600
2018-08-09T08:50:58.647Z,600
2018-08-09T08:51:39.026Z,600
2018-08-09T08:52:19.659Z,600
2018-08-09T08:53:00.094Z,600
2018-08-09T08:53:40.680Z,596
2018-08-09T08:54:21.407Z,592
2018-08-09T08:55:01.816Z,592
2018-08-09T08:55:42.401Z,596
2018-08-09T08:56:22.895Z,592
2018-08-09T08:57:03.407Z,592
2018-08-09T08:57:45.323Z,588
2018-08-09T08:58:27.689Z,588
2018-08-09T08:59:08.365Z,588
2018-08-09T08:59:48.999Z,588
2018-08-09T09:00:29.483Z,588
2018-08-09T09:01:10.402Z,584
2018-08-09T09:01:50.762Z,588
2018-08-09T09:02:31.417Z,584
2018-08-09T09:03:11.915Z,584
2018-08-09T09:03:52.413Z,580
2018-08-09T09:04:32.961Z,580
2018-08-09T09:05:13.568Z,580
2018-08-09T09:05:54.263Z,580
2018-08-09T09:06:34.724Z,576
2018-08-09T09:07:15.272Z,580
2018-08-09T09:07:55.752Z,576
2018-08-09T09:08:37.503Z,580
2018-08-09T09:09:17.907Z,580
2018-08-09T09:09:58.441Z,576
2018-08-09T09:10:38.950Z,576
2018-08-09T09:11:19.504Z,580
2018-08-09T09:12:00.726Z,580
2018-08-09T09:12:42.083Z,580
2018-08-09T09:13:23.017Z,580
2018-08-09T09:14:03.613Z,580
2018-08-09T09:14:44.273Z,584
2018-08-09T09:15:25.135Z,580
2018-08-09T09:16:06.237Z,584
2018-08-09T09:16:46.788Z,580
2018-08-09T09:17:27.356Z,608
2018-08-09T09:18:07.848Z,584
2018-08-09T09:18:48.524Z,584
2018-08-09T09:19:29.327Z,580
2018-08-09T09:20:10.091Z,584
2018-08-09T09:20:50.728Z,584
2018-08-09T09:21:31.430Z,592
2018-08-09T09:22:12.136Z,588
2018-08-09T09:22:52.595Z,588
2018-08-09T09:23:33.245Z,584
2018-08-09T09:24:13.675Z,584
2018-08-09T09:24:54.320Z,584
2018-08-09T09:25:34.768Z,588
2018-08-09T09:26:15.807Z,584
2018-08-09T09:26:56.780Z,584
2018-08-09T09:27:37.242Z,588
2018-08-09T09:28:17.918Z,584
2018-08-09T09:28:58.467Z,588
2018-08-09T09:29:39.048Z,588
2018-08-09T09:30:19.725Z,584
2018-08-09T09:31:00.255Z,584
2018-08-09T09:31:40.989Z,584
2018-08-09T09:32:21.441Z,580
2018-08-09T09:33:01.928Z,584
2018-08-09T09:33:42.528Z,584
2018-08-09T09:34:23.227Z,584
2018-08-09T09:35:03.735Z,584
2018-08-09T09:35:44.283Z,584
2018-08-09T09:36:24.852Z,580
2018-08-09T09:37:05.187Z,580
2018-08-09T09:37:45.885Z,576
2018-08-09T09:38:26.726Z,572
2018-08-09T09:39:07.290Z,572
2018-08-09T09:39:47.736Z,572
2018-08-09T09:40:28.249Z,572
2018-08-09T09:41:08.830Z,564
2018-08-09T09:41:49.587Z,564